Time;durP1;ratioP1;P1;durP2;ratioP2;P2;SDS_P1;SDS_P2;PMS_P1;PMS_P2;Temp;Humidity;BMP_temperature;BMP_pressure;BME280_temperature;BME280_humidity;BME280_pressure;Samples;Min_cycle;Max_cycle;Signal;HPM_P1;HPM_P2
2022/11/03 00:01:55;;;;;;;16.15;4.28;;;;;;;8.89;77.89;100425.88;4954636;28;20387;-89
2022/11/03 00:04:22;;;;;;;9.75;4.80;;;;;;;8.90;77.55;100425.75;4950683;28;20517;-89
2022/11/03 00:06:50;;;;;;;6.72;4.15;;;;;;;8.86;77.66;100426.94;4970442;28;20042;-89
2022/11/03 00:09:18;;;;;;;10.55;3.95;;;;;;;8.91;77.71;100426.59;4960027;28;20047;-90
2022/11/03 00:11:47;;;;;;;11.27;4.18;;;;;;;8.90;77.77;100423.13;4957957;28;20061;-89
2022/11/03 00:14:14;;;;;;;10.70;4.63;;;;;;;8.93;77.78;100427.34;4973663;28;20044;-89
2022/11/03 00:16:41;;;;;;;11.95;4.80;;;;;;;8.86;77.59;100424.28;4985537;28;20042;-90
2022/11/03 00:19:09;;;;;;;9.82;5.13;;;;;;;8.84;77.61;100433.28;4978246;28;20101;-90
2022/11/03 00:21:36;;;;;;;8.65;4.43;;;;;;;8.81;77.83;100423.75;4950036;28;20054;-89
2022/11/03 00:24:03;;;;;;;10.30;4.85;;;;;;;8.80;77.57;100427.38;4972905;28;20143;-90
2022/11/03 00:26:31;;;;;;;12.07;3.85;;;;;;;8.68;77.47;100422.97;4981477;28;20042;-89
2022/11/03 00:29:00;;;;;;;11.77;4.18;;;;;;;8.63;76.59;100414.50;4955492;28;20557;-89
2022/11/03 00:31:29;;;;;;;8.85;3.97;;;;;;;8.63;77.05;100419.78;4983743;28;20113;-90
2022/11/03 00:33:57;;;;;;;9.30;3.78;;;;;;;8.62;76.94;100418.06;4940390;28;20078;-89
2022/11/03 00:36:32;;;;;;;12.88;4.55;;;;;;;8.74;77.15;100411.06;4981582;28;20078;-90
2022/11/03 00:38:59;;;;;;;12.18;4.35;;;;;;;8.72;77.41;100413.81;4966184;28;20058;-88
2022/11/03 00:41:26;;;;;;;12.77;4.57;;;;;;;8.68;77.64;100415.84;4938744;28;20440;-89
2022/11/03 00:43:53;;;;;;;10.30;4.43;;;;;;;8.82;76.68;100421.97;4953648;28;20046;-89
2022/11/03 00:46:21;;;;;;;7.97;4.13;;;;;;;8.82;76.86;100420.16;4951894;28;20107;-88
2022/11/03 00:48:48;;;;;;;9.15;4.85;;;;;;;8.68;77.28;100412.38;4951507;28;20325;-90
2022/11/03 00:51:26;;;;;;;12.00;5.10;;;;;;;8.60;77.04;100406.75;4951965;28;20042;-89
2022/11/03 00:53:55;;;;;;;10.52;4.35;;;;;;;8.68;77.25;100407.06;4973885;28;20042;-89
2022/11/03 00:56:24;;;;;;;11.07;4.85;;;;;;;8.66;77.03;100399.22;4948718;28;20055;-90
2022/11/03 00:58:52;;;;;;;10.20;4.65;;;;;;;8.59;77.60;100395.31;4956495;28;20134;-89
2022/11/03 01:01:30;;;;;;;7.88;3.90;;;;;;;8.48;77.12;100397.91;4963681;28;20050;-90
2022/11/03 01:06:50;;;;;;;10.52;4.03;;;;;;;8.37;76.82;100384.53;4952898;28;20098;-89
2022/11/03 01:09:28;;;;;;;10.60;3.83;;;;;;;8.38;76.80;100379.13;4964506;28;20047;-90
2022/11/03 01:12:04;;;;;;;11.45;4.68;;;;;;;8.35;76.99;100373.22;4959026;28;20054;-89
2022/11/03 01:14:38;;;;;;;9.02;3.90;;;;;;;8.39;76.94;100367.63;4954323;28;20078;-89
2022/11/03 01:17:06;;;;;;;12.93;4.22;;;;;;;8.37;76.68;100371.28;4962025;28;20498;-89
2022/11/03 01:19:33;;;;;;;13.98;4.63;;;;;;;8.39;76.97;100370.25;4963881;28;20059;-89
2022/11/03 01:22:00;;;;;;;11.27;3.78;;;;;;;8.27;77.00;100364.03;4931670;28;20639;-88
2022/11/03 01:24:30;;;;;;;11.40;4.35;;;;;;;8.39;76.77;100370.25;4940520;28;20440;-89
2022/11/03 01:26:57;;;;;;;8.27;4.15;;;;;;;8.39;76.63;100364.97;4969274;28;20054;-89
2022/11/03 01:29:24;;;;;;;13.55;4.18;;;;;;;8.32;77.06;100353.13;4966038;28;20050;-89
2022/11/03 01:31:50;;;;;;;8.85;3.83;;;;;;;8.23;76.93;100348.47;4959348;28;20046;-89
2022/11/03 01:34:19;;;;;;;8.40;4.10;;;;;;;8.20;76.68;100344.25;4976287;28;20448;-90
2022/11/03 01:36:46;;;;;;;7.95;3.83;;;;;;;8.21;76.81;100326.56;4975930;28;20985;-88
2022/11/03 01:39:15;;;;;;;7.95;3.90;;;;;;;8.23;76.57;100338.72;4954996;28;20050;-88
2022/11/03 01:41:44;;;;;;;13.23;3.60;;;;;;;8.34;76.77;100331.81;4972104;28;20047;-89
2022/11/03 01:44:11;;;;;;;10.30;4.07;;;;;;;8.35;76.78;100328.25;4980371;28;20046;-88
2022/11/03 01:46:43;;;;;;;8.98;3.90;;;;;;;8.39;76.60;100330.56;4972653;28;20059;-89
2022/11/03 01:49:18;;;;;;;9.90;4.40;;;;;;;8.14;77.09;100325.28;4962258;28;20057;-88
2022/11/03 01:51:50;;;;;;;11.02;4.15;;;;;;;8.20;77.07;100328.38;4977870;28;20054;-89
2022/11/03 01:54:18;;;;;;;8.60;3.90;;;;;;;8.24;77.04;100329.84;4954927;28;20057;-89
2022/11/03 01:56:46;;;;;;;11.00;4.25;;;;;;;8.28;76.96;100317.25;4950275;28;20046;-89
2022/11/03 01:59:14;;;;;;;9.57;3.38;;;;;;;8.18;77.09;100329.44;4956323;28;20062;-89
2022/11/03 02:01:42;;;;;;;7.57;3.25;;;;;;;8.27;77.50;100323.50;4970872;28;20054;-89
2022/11/03 02:04:15;;;;;;;9.43;3.53;;;;;;;8.18;77.33;100324.13;4971255;28;20045;-89
2022/11/03 02:06:42;;;;;;;8.80;3.50;;;;;;;8.23;77.11;100324.66;4971087;28;20042;-90
2022/11/03 02:09:10;;;;;;;8.45;3.10;;;;;;;8.15;77.28;100317.25;4971455;28;20532;-88
2022/11/03 02:14:22;;;;;;;7.30;3.33;;;;;;;8.13;77.04;100316.53;4948967;28;20056;-89
2022/11/03 02:16:52;;;;;;;7.60;3.40;;;;;;;8.00;76.94;100319.19;4958031;28;20046;-89
2022/11/03 02:19:45;;;;;;;6.80;4.43;;;;;;;7.93;76.34;100317.06;4971680;28;20421;-89
2022/11/03 02:22:42;;;;;;;7.22;3.03;;;;;;;7.90;76.53;100312.84;4959035;28;20061;-88
2022/11/03 02:25:17;;;;;;;13.95;4.05;;;;;;;7.95;76.75;100305.44;4937592;28;20516;-89
2022/11/03 02:27:44;;;;;;;6.70;2.95;;;;;;;8.07;77.02;100294.97;4971331;28;20070;-89
2022/11/03 02:30:11;;;;;;;8.55;3.38;;;;;;;8.10;76.75;100290.28;4987910;28;20402;-89
2022/11/03 02:32:51;;;;;;;7.82;3.42;;;;;;;7.96;77.14;100285.13;4986492;28;20078;-89
2022/11/03 02:35:35;;;;;;;9.68;3.15;;;;;;;7.81;76.70;100281.75;4990507;28;20053;-88
2022/11/03 02:38:05;;;;;;;8.25;3.45;;;;;;;7.94;76.72;100279.13;4960517;28;20056;-89
2022/11/03 02:40:42;;;;;;;8.70;3.42;;;;;;;7.88;77.03;100271.59;4987355;28;20039;-90
2022/11/03 02:43:09;;;;;;;9.48;3.40;;;;;;;8.02;77.15;100271.47;5001004;28;20043;-90
2022/11/03 02:45:36;;;;;;;6.68;3.10;;;;;;;8.03;77.17;100265.22;4988641;28;20042;-91
2022/11/03 02:48:04;;;;;;;8.60;2.88;;;;;;;8.00;77.22;100257.50;4985205;28;20050;-89
2022/11/03 02:50:32;;;;;;;5.35;2.97;;;;;;;8.05;77.59;100261.53;4950308;28;20490;-90
2022/11/03 02:52:59;;;;;;;13.07;3.17;;;;;;;8.00;77.70;100253.06;4972253;28;20054;-89
2022/11/03 02:55:51;;;;;;;9.68;3.20;;;;;;;7.83;77.25;100248.97;4971948;28;20060;-90
2022/11/03 02:58:39;;;;;;;17.38;3.80;;;;;;;7.85;77.74;100251.50;4975429;28;20047;-88
2022/11/03 03:01:33;;;;;;;9.75;2.97;;;;;;;7.79;77.69;100249.31;4957198;28;20486;-89
2022/11/03 03:04:03;;;;;;;10.77;3.53;;;;;;;7.90;76.32;100241.44;4962819;28;20047;-89
2022/11/03 03:06:39;;;;;;;12.63;3.40;;;;;;;7.77;76.65;100244.13;4954894;28;20051;-90
2022/11/03 03:09:09;;;;;;;7.15;3.40;;;;;;;7.86;77.30;100233.84;4951182;28;20402;-89
2022/11/03 03:11:40;;;;;;;7.93;3.45;;;;;;;7.85;77.01;100219.78;4945423;28;20047;-89
2022/11/03 03:14:13;;;;;;;8.32;3.60;;;;;;;7.82;76.44;100233.22;4969539;28;20052;-88
2022/11/03 03:16:47;;;;;;;;;;;;;;;7.48;77.05;100226.78;4988554;28;20050;-88
2022/11/03 03:19:28;;;;;;;10.63;3.13;;;;;;;7.66;76.72;100220.25;5002023;28;19928;-89
2022/11/03 03:21:57;;;;;;;12.63;3.25;;;;;;;7.70;76.73;100212.94;4962523;28;20054;-88
2022/11/03 03:24:36;;;;;;;12.98;3.28;;;;;;;7.61;77.00;100207.34;4951882;28;20047;-87
2022/11/03 03:27:06;;;;;;;6.00;2.53;;;;;;;7.64;77.49;100201.00;4953689;28;20517;-88
2022/11/03 03:29:38;;;;;;;8.75;3.40;;;;;;;7.83;76.36;100193.44;4968813;28;20117;-88
2022/11/03 03:32:07;;;;;;;12.82;3.88;;;;;;;7.66;77.07;100193.81;5001641;28;20394;-88
2022/11/03 03:34:37;;;;;;;8.18;2.92;;;;;;;7.72;76.90;100189.88;4986558;28;20490;-89
2022/11/03 03:37:04;;;;;;;15.27;3.70;;;;;;;7.66;76.73;100193.81;4975499;28;20045;-88
2022/11/03 03:39:35;;;;;;;13.93;2.75;;;;;;;7.59;76.95;100195.19;4986537;28;20102;-88
2022/11/03 03:42:03;;;;;;;6.43;3.00;;;;;;;7.60;77.00;100200.34;5004236;28;20043;-88
2022/11/03 03:44:31;;;;;;;10.02;3.65;;;;;;;7.64;76.66;100186.94;4969261;28;20105;-87
2022/11/03 03:47:02;;;;;;;3.90;2.50;;;;;;;7.57;76.55;100190.00;4970578;28;20483;-88
2022/11/03 03:49:28;;;;;;;8.68;3.33;;;;;;;7.55;76.66;100177.84;4957895;28;20376;-87
2022/11/03 03:51:55;;;;;;;6.28;3.00;;;;;;;7.50;77.07;100183.47;4964825;28;20051;-89
2022/11/03 03:54:22;;;;;;;9.30;3.05;;;;;;;7.43;76.86;100181.34;4924235;28;20125;-88
2022/11/03 03:56:58;;;;;;;11.55;3.70;;;;;;;7.42;76.51;100182.31;4949333;28;20556;-88
2022/11/03 03:59:24;;;;;;;10.13;3.22;;;;;;;7.58;75.85;100188.19;4947819;28;20098;-88
2022/11/03 04:01:51;;;;;;;11.65;3.28;;;;;;;7.45;76.32;100180.28;4965601;28;20046;-89
2022/11/03 04:04:18;;;;;;;8.48;3.35;;;;;;;7.53;76.27;100175.34;4972038;28;20130;-88
2022/11/03 04:06:45;;;;;;;7.75;3.03;;;;;;;7.47;76.57;100177.56;4986452;28;20112;-87
2022/11/03 04:09:11;;;;;;;7.93;3.05;;;;;;;7.48;76.57;100166.03;4990620;28;20100;-87
2022/11/03 04:22:48;;;;;;;8.65;2.42;;;;;;;7.48;76.81;100142.25;4971507;28;20049;-88
2022/11/03 04:25:15;;;;;;;9.05;2.60;;;;;;;7.49;76.89;100146.59;4937914;28;20117;-89
2022/11/03 04:27:43;;;;;;;10.90;4.53;;;;;;;7.54;76.93;100142.66;4937839;28;20491;-89
2022/11/03 04:30:18;;;;;;;7.45;2.63;;;;;;;7.43;76.50;100131.16;4971422;28;20449;-90
2022/11/03 04:32:49;;;;;;;7.43;3.40;;;;;;;7.47;76.39;100124.72;4967738;28;20073;-90
2022/11/03 04:35:27;;;;;;;5.38;2.70;;;;;;;7.27;77.33;100129.59;4962263;28;20051;-89
2022/11/03 04:37:57;;;;;;;17.80;3.10;;;;;;;7.39;77.00;100131.38;4984971;28;20061;-89
2022/11/03 04:40:24;;;;;;;8.98;3.13;;;;;;;7.39;77.31;100126.09;4978731;28;20042;-89
2022/11/03 04:42:51;;;;;;;6.75;3.20;;;;;;;7.44;77.23;100136.34;4959438;28;20096;-88
2022/11/03 04:45:37;;;;;;;9.52;2.92;;;;;;;7.31;77.19;100130.22;4969831;28;20051;-88
2022/11/03 04:48:13;;;;;;;7.07;3.15;;;;;;;7.18;76.88;100128.44;4946636;28;20049;-87
2022/11/03 04:50:40;;;;;;;7.55;3.00;;;;;;;7.30;76.81;100112.69;4964730;28;20058;-89
2022/11/03 04:53:13;;;;;;;7.63;3.33;;;;;;;7.28;77.35;100104.03;4951792;28;20050;-89
2022/11/03 04:55:41;;;;;;;7.65;3.70;;;;;;;7.19;77.38;100110.78;4966756;28;20101;-89
2022/11/03 04:58:22;;;;;;;7.78;3.47;;;;;;;7.16;77.25;100108.38;4987616;28;20106;-91
2022/11/03 05:00:51;;;;;;;9.20;3.72;;;;;;;7.25;77.48;100099.81;4946344;28;20039;-91
2022/11/03 05:03:31;;;;;;;9.45;3.40;;;;;;;7.04;77.42;100098.66;4954747;28;20046;-91
2022/11/03 05:06:01;;;;;;;10.07;3.13;;;;;;;7.23;77.45;100099.06;4944191;28;20138;-90
2022/11/03 05:08:28;;;;;;;5.20;2.88;;;;;;;7.24;77.64;100097.28;4969303;28;20077;-91
2022/11/03 05:10:54;;;;;;;4.25;2.67;;;;;;;7.11;77.53;100106.06;4962743;28;20054;-90
2022/11/03 05:13:26;;;;;;;8.77;3.03;;;;;;;7.16;77.16;100093.38;4960059;28;20042;-90
2022/11/03 05:16:03;;;;;;;7.30;2.85;;;;;;;7.09;77.89;100105.31;4931912;28;20045;-88
2022/11/03 05:18:32;;;;;;;8.75;3.60;;;;;;;7.26;77.20;100092.72;4934727;28;20053;-89
2022/11/03 05:21:01;;;;;;;6.13;3.10;;;;;;;7.22;76.87;100092.09;4954974;28;20125;-91
2022/11/03 05:23:30;;;;;;;7.13;3.78;;;;;;;7.21;76.67;100081.66;4924566;28;20043;-89
2022/11/03 05:25:57;;;;;;;6.60;2.50;;;;;;;7.15;76.77;100073.22;4917681;28;20050;-91
2022/11/03 05:28:29;;;;;;;7.20;3.22;;;;;;;7.21;76.87;100079.84;4924529;28;20043;-91
2022/11/03 05:30:56;;;;;;;6.38;3.30;;;;;;;7.09;76.73;100072.78;4931504;28;20489;-90
2022/11/03 05:33:26;;;;;;;9.07;3.15;;;;;;;6.95;76.98;100071.97;4929537;28;20130;-91
2022/11/03 05:35:54;;;;;;;11.70;4.43;;;;;;;7.03;77.19;100067.94;4948341;28;20431;-90
2022/11/03 05:38:22;;;;;;;12.65;5.35;;;;;;;7.09;77.63;100060.41;4943260;28;20066;-90
2022/11/03 05:40:51;;;;;;;12.18;5.28;;;;;;;7.03;77.81;100052.09;4932059;28;20050;-82
2022/11/03 05:43:19;;;;;;;10.05;4.85;;;;;;;6.93;78.53;100054.53;4938166;28;20070;-82
2022/11/03 05:45:49;;;;;;;9.75;4.20;;;;;;;6.89;77.48;100043.31;4953055;28;20042;-81
2022/11/03 05:48:25;;;;;;;4.97;2.95;;;;;;;6.81;76.99;100035.09;4970043;28;20054;-81
2022/11/03 05:50:52;;;;;;;7.07;3.25;;;;;;;6.82;76.78;100038.59;4979084;28;20052;-81
2022/11/03 05:53:30;;;;;;;7.28;2.72;;;;;;;6.66;76.86;100031.72;4979445;28;20444;-81
2022/11/03 05:56:00;;;;;;;6.80;3.08;;;;;;;6.79;76.73;100033.53;4944556;28;20133;-81
2022/11/03 05:58:28;;;;;;;8.48;3.33;;;;;;;6.74;76.87;100039.13;4949409;28;20151;-81
2022/11/03 06:00:56;;;;;;;9.57;3.65;;;;;;;6.91;76.81;100033.50;4950656;28;20061;-81
2022/11/03 06:03:26;;;;;;;9.18;2.80;;;;;;;6.85;76.50;100028.69;4955070;28;20069;-81
2022/11/03 06:05:53;;;;;;;10.93;2.55;;;;;;;6.83;77.07;100027.09;4964712;28;20054;-81
2022/11/03 06:08:23;;;;;;;5.95;2.70;;;;;;;6.80;76.94;100029.94;4929711;28;20716;-81
2022/11/03 06:10:57;;;;;;;6.18;2.53;;;;;;;6.93;77.08;100036.06;4989310;28;20063;-81
2022/11/03 06:13:29;;;;;;;7.40;2.90;;;;;;;6.88;77.74;100025.81;4937601;28;20047;-81
2022/11/03 06:16:00;;;;;;;9.18;2.75;;;;;;;6.92;78.06;100023.78;4935933;28;20054;-81
2022/11/03 06:18:33;;;;;;;5.85;2.92;;;;;;;6.91;78.63;100019.47;4925966;28;20101;-80
2022/11/03 06:21:21;;;;;;;5.53;3.03;;;;;;;6.78;79.07;100014.22;4950441;28;20502;-81
2022/11/03 06:23:48;;;;;;;8.35;3.25;;;;;;;6.96;78.37;99999.72;4960601;28;20111;-81
2022/11/03 06:26:21;;;;;;;7.00;3.20;;;;;;;6.99;77.86;99998.66;4968720;28;20380;-81
2022/11/03 06:28:48;;;;;;;;;;;;;;;6.77;78.99;99990.56;4969205;28;20526;-80
2022/11/03 06:31:29;;;;;;;5.30;2.85;;;;;;;6.93;78.42;99991.19;4975210;28;19922;-82
2022/11/03 06:33:56;;;;;;;4.88;2.80;;;;;;;7.01;78.25;99995.91;4957833;28;20046;-81
2022/11/03 06:36:31;;;;;;;9.07;2.92;;;;;;;6.93;78.49;99989.38;4933040;28;20047;-80
2022/11/03 06:39:03;;;;;;;6.13;3.38;;;;;;;6.92;78.56;99995.63;4964818;28;20050;-81
2022/11/03 06:41:31;;;;;;;8.95;2.88;;;;;;;6.94;78.60;99979.66;4966925;28;20073;-81
2022/11/03 06:44:01;;;;;;;6.65;3.15;;;;;;;6.94;78.93;99977.84;4951330;28;20046;-81
2022/11/03 06:46:28;;;;;;;9.63;3.60;;;;;;;6.99;78.41;99982.81;4932382;28;20425;-81
2022/11/03 06:48:58;;;;;;;5.43;3.30;;;;;;;7.01;78.57;99980.91;4946204;28;20058;-81
2022/11/03 06:51:29;;;;;;;11.43;4.20;;;;;;;7.05;78.60;99989.47;4970308;28;20493;-81
2022/11/03 06:53:59;;;;;;;6.80;3.30;;;;;;;7.09;78.25;99986.47;4988324;28;20046;-81
2022/11/03 06:56:33;;;;;;;14.85;3.90;;;;;;;7.08;79.14;99987.44;4943760;28;20117;-81
2022/11/03 06:59:00;;;;;;;7.78;3.95;;;;;;;7.24;78.62;99984.53;4957308;28;20051;-81
2022/11/03 07:01:33;;;;;;;6.18;3.40;;;;;;;7.18;78.56;99990.28;4937591;28;20066;-81
2022/11/03 07:04:20;;;;;;;11.85;4.88;;;;;;;7.14;78.82;99989.63;4943066;28;20062;-81
2022/11/03 07:06:47;;;;;;;6.10;3.83;;;;;;;7.18;78.62;99982.34;4955373;28;20046;-81
2022/11/03 07:09:22;;;;;;;6.28;3.83;;;;;;;7.27;78.78;99989.59;4984775;28;20050;-82
2022/11/03 07:11:54;;;;;;;10.93;5.15;;;;;;;7.32;78.97;99979.53;4981244;28;20079;-80
2022/11/03 07:14:27;;;;;;;12.35;4.65;;;;;;;7.26;79.23;99981.81;4984958;28;20398;-81
2022/11/03 07:17:01;;;;;;;15.60;4.82;;;;;;;7.25;79.79;99980.09;4971830;28;20481;-80
2022/11/03 07:19:32;;;;;;;16.95;4.88;;;;;;;7.34;79.42;99969.72;4974263;28;20050;-80
2022/11/03 07:22:04;;;;;;;9.70;4.57;;;;;;;7.24;78.89;99960.78;4973972;28;20401;-80
2022/11/03 07:24:34;;;;;;;11.57;5.43;;;;;;;7.31;78.57;99969.94;4998901;28;20121;-81
2022/11/03 07:27:20;;;;;;;12.40;5.65;;;;;;;7.31;78.67;99969.09;4937758;28;20519;-81
2022/11/03 07:29:48;;;;;;;9.55;5.10;;;;;;;7.43;78.17;99968.22;4950350;28;20049;-81
2022/11/03 07:32:18;;;;;;;15.38;5.43;;;;;;;7.41;78.32;99950.78;4985771;28;20046;-80
2022/11/03 07:34:46;;;;;;;10.43;5.57;;;;;;;7.39;78.47;99950.88;4967824;28;20049;-80
2022/11/03 07:37:18;;;;;;;15.30;4.93;;;;;;;7.42;78.42;99941.91;4968992;28;20050;-82
2022/11/03 07:39:45;;;;;;;11.55;5.30;;;;;;;7.48;79.15;99941.44;4968488;28;20046;-80
2022/11/03 07:42:21;;;;;;;14.05;4.85;;;;;;;7.44;79.54;99937.34;4975531;28;20050;-81
2022/11/03 07:44:51;;;;;;;10.85;5.38;;;;;;;7.58;79.31;99926.56;4953700;28;20046;-81
2022/11/03 07:47:19;;;;;;;11.27;5.22;;;;;;;7.62;79.42;99922.75;4953011;28;20050;-81
2022/11/03 07:49:46;;;;;;;16.90;5.50;;;;;;;7.60;79.82;99922.03;4988602;28;20433;-80
2022/11/03 07:52:15;;;;;;;12.57;5.57;;;;;;;7.63;79.95;99918.31;4973894;28;20038;-81
2022/11/03 07:54:42;;;;;;;10.98;5.10;;;;;;;7.69;80.63;99924.00;4970937;28;20045;-81
2022/11/03 07:57:20;;;;;;;11.68;5.93;;;;;;;7.73;81.25;99919.31;4973846;28;20042;-81
2022/11/03 07:59:48;;;;;;;14.02;5.50;;;;;;;7.83;80.83;99915.00;4961122;28;20046;-80
2022/11/03 08:02:32;;;;;;;11.80;5.07;;;;;;;7.74;81.67;99908.63;4968105;28;20038;-80
2022/11/03 08:05:00;;;;;;;14.02;6.47;;;;;;;7.82;81.16;99895.66;4985397;28;20042;-81
2022/11/03 08:07:27;;;;;;;12.27;6.25;;;;;;;7.78;81.80;99896.84;4956017;28;20061;-81
2022/11/03 08:09:54;;;;;;;9.80;6.35;;;;;;;7.82;81.78;99893.03;4992084;28;20042;-81
2022/11/03 08:12:21;;;;;;;13.02;6.38;;;;;;;7.85;81.95;99894.59;4987764;28;20162;-81
2022/11/03 08:14:47;;;;;;;11.60;6.70;;;;;;;7.93;81.89;99875.50;4971471;28;20453;-83
2022/11/03 08:17:14;;;;;;;15.40;6.43;;;;;;;7.97;82.15;99875.16;4952983;28;20096;-80
2022/11/03 08:19:41;;;;;;;14.60;5.93;;;;;;;7.98;82.09;99876.81;4965780;28;20130;-82
2022/11/03 08:22:08;;;;;;;10.85;5.47;;;;;;;8.08;81.71;99865.53;4968440;28;20525;-80
2022/11/03 08:24:35;;;;;;;11.77;6.00;;;;;;;8.12;81.84;99870.47;4958999;28;20050;-81
2022/11/03 08:27:02;;;;;;;13.48;6.50;;;;;;;8.15;82.47;99859.66;4943881;28;20050;-81
2022/11/03 08:29:29;;;;;;;10.85;5.50;;;;;;;8.21;81.71;99845.09;4969848;28;20116;-81
2022/11/03 08:31:55;;;;;;;15.32;6.00;;;;;;;8.20;82.03;99838.16;4969600;28;20042;-80
2022/11/03 08:34:22;;;;;;;12.35;6.13;;;;;;;8.23;81.79;99844.03;4981715;28;20107;-81
2022/11/03 08:36:49;;;;;;;17.70;5.95;;;;;;;8.27;82.05;99834.06;4996937;28;20453;-81
2022/11/03 08:39:16;;;;;;;13.60;5.72;;;;;;;8.30;82.09;99827.69;4951441;28;20490;-81
2022/11/03 08:41:42;;;;;;;15.13;6.28;;;;;;;8.35;81.97;99825.53;4970079;28;20038;-81
2022/11/03 08:44:09;;;;;;;11.40;6.30;;;;;;;8.39;82.33;99809.28;4957373;28;20066;-81
2022/11/03 08:46:36;;;;;;;9.20;5.15;;;;;;;8.43;82.57;99808.09;4950000;28;20049;-80
2022/11/03 08:49:03;;;;;;;18.52;6.53;;;;;;;8.41;82.78;99796.78;4966034;28;20042;-82
2022/11/03 08:51:29;;;;;;;14.18;5.80;;;;;;;8.47;82.27;99796.31;4938787;28;20043;-81
2022/11/03 08:53:56;;;;;;;9.48;5.78;;;;;;;8.50;82.18;99792.56;4993298;28;20050;-81
2022/11/03 08:56:23;;;;;;;12.23;5.00;;;;;;;8.50;82.27;99800.50;4951477;28;20514;-82
2022/11/03 08:58:50;;;;;;;10.95;5.90;;;;;;;8.51;83.09;99794.25;4956382;28;20038;-81
2022/11/03 09:01:17;;;;;;;8.00;5.53;;;;;;;8.58;82.46;99800.72;4970692;28;20049;-81
2022/11/03 09:03:44;;;;;;;12.32;6.22;;;;;;;8.62;82.88;99796.00;4965532;28;20673;-82
2022/11/03 09:06:10;;;;;;;13.52;5.97;;;;;;;8.68;82.47;99801.66;5000699;28;20042;-81
2022/11/03 09:08:37;;;;;;;13.45;5.20;;;;;;;8.76;82.34;99802.84;4991783;28;20117;-80
2022/11/03 09:11:24;;;;;;;9.60;5.78;;;;;;;8.82;82.51;99802.34;4966375;28;20068;-81
2022/11/03 09:13:50;;;;;;;13.63;6.55;;;;;;;8.89;82.69;99799.06;4993983;28;20038;-81
2022/11/03 09:16:17;;;;;;;10.50;7.30;;;;;;;8.96;82.71;99793.28;4982704;28;20058;-81
2022/11/03 09:18:44;;;;;;;12.82;6.03;;;;;;;8.99;82.65;99782.44;4967399;28;20572;-81
2022/11/03 09:21:12;;;;;;;18.58;7.05;;;;;;;9.04;82.94;99793.47;5000207;28;20467;-81
2022/11/03 09:23:39;;;;;;;15.65;7.03;;;;;;;9.07;82.92;99782.63;4967911;28;20381;-81
2022/11/03 09:26:06;;;;;;;12.32;6.05;;;;;;;9.11;83.02;99781.41;4958509;28;20069;-80
2022/11/03 09:28:32;;;;;;;13.40;6.80;;;;;;;9.15;83.03;99782.00;4956721;28;20046;-81
2022/11/03 09:30:59;;;;;;;15.05;6.68;;;;;;;9.19;83.14;99776.31;4983180;28;20047;-81
2022/11/03 09:33:26;;;;;;;17.38;6.82;;;;;;;9.22;82.90;99772.56;4977335;28;20051;-81
2022/11/03 09:35:52;;;;;;;13.23;5.53;;;;;;;9.22;83.38;99764.63;4977637;28;20042;-81
2022/11/03 09:38:19;;;;;;;14.05;6.35;;;;;;;9.25;83.16;99751.09;4962286;28;20043;-81
2022/11/03 09:40:46;;;;;;;14.38;6.85;;;;;;;9.27;83.36;99754.47;4972160;28;20038;-81
2022/11/03 09:43:18;;;;;;;12.98;6.47;;;;;;;9.29;83.34;99753.38;4920966;28;20145;-81
2022/11/03 09:45:44;;;;;;;14.65;6.13;;;;;;;9.32;83.14;99757.56;4941284;28;20561;-81
2022/11/03 09:48:12;;;;;;;11.55;6.20;;;;;;;9.34;83.09;99756.47;4987248;28;20577;-81
2022/11/03 09:50:38;;;;;;;10.63;5.60;;;;;;;9.39;82.95;99750.78;4965597;28;20046;-81
2022/11/03 09:53:07;;;;;;;15.35;7.72;;;;;;;9.42;83.60;99752.34;4993543;28;20043;-81
2022/11/03 09:55:34;;;;;;;16.02;7.05;;;;;;;9.43;83.49;99746.06;4958130;28;20051;-81
2022/11/03 09:58:09;;;;;;;11.43;5.72;;;;;;;9.42;83.70;99739.09;4979753;28;20585;-82
2022/11/03 10:00:36;;;;;;;18.27;7.25;;;;;;;9.46;83.59;99727.22;4974181;28;20084;-81
2022/11/03 10:03:03;;;;;;;9.48;5.72;;;;;;;9.49;83.39;99721.66;4988462;28;20131;-81
2022/11/03 10:05:31;;;;;;;13.50;6.30;;;;;;;9.50;83.47;99718.06;4984917;28;20122;-81
2022/11/03 10:08:01;;;;;;;12.20;6.60;;;;;;;9.53;83.58;99705.38;4986256;28;20042;-81
2022/11/03 10:10:29;;;;;;;13.55;5.80;;;;;;;9.56;83.52;99705.09;4955626;28;20113;-81
2022/11/03 10:12:56;;;;;;;12.48;5.43;;;;;;;9.58;83.70;99704.97;4970394;28;20097;-81
2022/11/03 10:15:23;;;;;;;7.03;4.80;;;;;;;9.61;83.47;99701.22;4970757;28;23301;-81
2022/11/03 10:17:50;;;;;;;14.75;5.60;;;;;;;9.62;83.79;99695.81;4972553;28;20051;-81
2022/11/03 10:20:19;;;;;;;9.57;4.40;;;;;;;9.64;83.52;99690.34;4986436;28;20461;-81
2022/11/03 10:22:50;;;;;;;8.60;4.75;;;;;;;9.66;83.50;99691.06;4971845;28;20045;-81
2022/11/03 10:25:35;;;;;;;10.10;4.88;;;;;;;9.62;84.24;99687.00;4968730;28;20050;-81
2022/11/03 10:28:14;;;;;;;9.38;5.07;;;;;;;9.67;84.38;99685.63;4969831;28;20050;-81
2022/11/03 10:30:55;;;;;;;11.10;5.85;;;;;;;9.69;84.55;99688.13;4956747;28;20043;-81
2022/11/03 10:33:59;;;;;;;7.25;4.05;;;;;;;9.69;84.94;99674.88;4903482;28;20069;-81
2022/11/03 10:36:30;;;;;;;16.63;4.82;;;;;;;9.75;84.81;99672.53;4942952;28;20050;-84
2022/11/03 10:38:57;;;;;;;12.80;4.72;;;;;;;9.79;85.07;99665.13;4950467;28;20047;-81
2022/11/03 10:41:26;;;;;;;12.15;5.45;;;;;;;9.82;85.03;99658.72;4939393;28;20410;-81
2022/11/03 10:43:59;;;;;;;10.88;4.70;;;;;;;9.82;85.04;99659.59;4955386;28;20109;-81
2022/11/03 10:46:26;;;;;;;9.52;4.68;;;;;;;9.87;85.31;99664.47;4998620;28;20376;-81
2022/11/03 10:49:14;;;;;;;12.30;5.15;;;;;;;9.90;85.31;99651.78;4905363;28;20050;-81
2022/11/03 10:51:42;;;;;;;6.78;4.35;;;;;;;9.96;85.56;99643.28;4971009;28;20096;-81
2022/11/03 10:54:11;;;;;;;11.02;5.43;;;;;;;9.99;85.35;99640.34;4971395;28;20733;-81
2022/11/03 10:56:38;;;;;;;15.13;6.00;;;;;;;10.03;85.65;99627.66;4983770;28;20182;-81
2022/11/03 10:59:05;;;;;;;11.77;5.97;;;;;;;10.07;85.69;99610.47;4991036;28;20039;-81
2022/11/03 11:01:32;;;;;;;12.80;6.00;;;;;;;10.08;86.06;99614.00;4969498;28;20054;-81
2022/11/03 11:03:59;;;;;;;13.48;5.97;;;;;;;10.09;85.94;99613.84;4970420;28;20046;-81
2022/11/03 11:06:28;;;;;;;10.60;5.80;;;;;;;10.10;85.95;99599.63;4968552;28;20050;-81
2022/11/03 11:09:00;;;;;;;16.48;6.30;;;;;;;10.08;86.13;99598.06;4972977;28;20058;-80
2022/11/03 11:11:27;;;;;;;9.30;4.85;;;;;;;10.12;86.02;99592.34;4974928;28;20046;-81
2022/11/03 11:14:29;;;;;;;10.98;5.47;;;;;;;10.06;86.63;99584.94;4983764;28;20225;-81
2022/11/03 11:16:58;;;;;;;10.85;5.95;;;;;;;10.14;85.91;99582.41;4937806;28;20054;-81
2022/11/03 11:19:26;;;;;;;10.18;4.90;;;;;;;10.17;85.55;99584.78;4959367;28;20050;-81
2022/11/03 11:21:52;;;;;;;12.30;5.88;;;;;;;10.18;86.21;99570.56;4993615;28;20066;-82
2022/11/03 11:24:41;;;;;;;11.18;4.95;;;;;;;10.13;86.75;99558.69;4969041;28;20062;-81
2022/11/03 11:27:30;;;;;;;14.75;6.25;;;;;;;10.14;86.74;99561.19;4940941;28;20148;-81
2022/11/03 11:29:58;;;;;;;13.98;5.53;;;;;;;10.21;86.33;99561.50;4957939;28;20058;-81
2022/11/03 11:32:43;;;;;;;14.32;5.53;;;;;;;10.17;87.06;99565.38;4949711;28;20108;-82
2022/11/03 11:35:16;;;;;;;17.95;6.72;;;;;;;10.22;86.52;99552.53;4958904;28;20125;-81
2022/11/03 11:37:43;;;;;;;11.35;5.45;;;;;;;10.25;86.52;99544.28;4957254;28;20096;-81
2022/11/03 11:40:33;;;;;;;14.23;6.35;;;;;;;10.26;86.33;99542.50;4966453;28;20054;-81
2022/11/03 11:43:10;;;;;;;13.02;6.65;;;;;;;10.28;86.66;99533.44;4929281;28;20087;-81
2022/11/03 11:46:14;;;;;;;15.38;7.25;;;;;;;10.22;87.05;99532.13;4980172;28;20129;-81
2022/11/03 11:48:41;;;;;;;11.18;5.55;;;;;;;10.28;87.01;99527.28;4890530;28;20451;-82
2022/11/03 11:51:09;;;;;;;11.30;6.13;;;;;;;10.30;86.87;99526.16;4949609;28;20054;-82
2022/11/03 11:53:38;;;;;;;16.05;7.35;;;;;;;10.32;86.79;99528.69;4947909;28;20051;-81
2022/11/03 11:56:08;;;;;;;14.07;7.45;;;;;;;10.33;86.50;99530.34;4951083;28;20070;-81
2022/11/03 11:58:43;;;;;;;16.35;8.30;;;;;;;10.28;86.75;99517.53;4972441;28;20045;-81
2022/11/03 12:01:20;;;;;;;16.02;7.82;;;;;;;10.29;87.07;99513.88;4960998;28;20046;-81
2022/11/03 12:03:48;;;;;;;16.98;8.63;;;;;;;10.35;87.38;99507.16;4931778;28;20054;-81
2022/11/03 12:06:15;;;;;;;11.90;6.85;;;;;;;10.36;87.39;99503.53;4951136;28;20051;-81